| time (UTC) | temp F | wind direction | speed MPH | gust MPH | rain 1hr in | rain 24hr in | rain mn in | humidity % | barometer mb |
| 20260905010108 | 81 | 0 | 0.0 | 0.0 | 0.00 | 1.38 | 1.38 | 93 | 1012.0 |
| 20260905004614 | 83 | 0 | 0.0 | 0.0 | 0.00 | 1.38 | 1.38 | 91 | 1012.0 |
| 20260905003101 | 84 | 0 | 0.0 | 0.0 | 0.00 | 1.38 | 1.38 | 90 | 1011.9 |
| 20260905001558 | 85 | 0 | 0.0 | 0.0 | 0.00 | 1.38 | 1.38 | 89 | 1011.7 |
| 20260905000106 | 87 | 0 | 0.0 | 0.0 | 0.00 | 1.38 | 1.38 | 87 | 1011.7 |
| 20260904234602 | 88 | 0 | 0.0 | 0.0 | 0.00 | 1.38 | 1.38 | 84 | 1011.8 |
| 20260904233108 | 89 | 0 | 0.0 | 0.0 | 0.00 | 1.38 | 1.38 | 84 | 1011.6 |
| 20260904231608 | 87 | 0 | 0.0 | 0.0 | 0.00 | 1.38 | 1.38 | 85 | 1011.5 |
| 20260904230112 | 84 | 0 | 1.0 | 5.0 | 0.00 | 1.38 | 1.38 | 82 | 1011.6 |
| 20260904224559 | 87 | 96 | 3.0 | 7.0 | 0.00 | 1.38 | 1.38 | 78 | 1011.7 |
| 20260904223103 | 94 | 162 | 1.0 | 5.0 | 0.00 | 1.38 | 1.38 | 69 | 1011.9 |
| 20260904221607 | 92 | 0 | 0.0 | 3.0 | 0.00 | 1.38 | 1.38 | 72 | 1011.8 |
| 20260904220108 | 90 | 0 | 0.0 | 0.0 | 0.00 | 1.38 | 1.38 | 78 | 1011.8 |
| 20260904214624 | 91 | 0 | 0.0 | 1.0 | 0.00 | 1.42 | 1.38 | 74 | 1012.1 |
| 20260904213059 | 92 | 0 | 0.0 | 3.0 | 0.00 | 1.42 | 1.38 | 72 | 1012.2 |
| 20260904211623 | 93 | 0 | 0.0 | 3.0 | 0.00 | 1.42 | 1.38 | 72 | 1012.3 |
| 20260904210059 | 92 | 242 | 0.0 | 5.0 | 0.00 | 1.42 | 1.38 | 75 | 1012.3 |
| 20260904204607 | 91 | 75 | 1.0 | 6.0 | 0.00 | 1.43 | 1.38 | 74 | 1012.5 |
| 20260904203114 | 90 | 0 | 0.0 | 5.0 | 0.00 | 1.43 | 1.38 | 80 | 1012.7 |
| 20260904201601 | 89 | 0 | 0.0 | 3.0 | 0.00 | 1.43 | 1.38 | 85 | 1013.0 |
| 20260904200120 | 88 | 66 | 1.0 | 4.0 | 0.00 | 1.43 | 1.38 | 88 | 1013.3 |
| 20260904194608 | 87 | 0 | 0.0 | 5.0 | 0.00 | 1.73 | 1.38 | 89 | 1013.4 |
| 20260904193102 | 84 | 89 | 1.0 | 6.0 | 0.00 | 1.73 | 1.38 | 92 | 1013.5 |
| 20260904191607 | 82 | 0 | 1.0 | 4.0 | 0.00 | 1.73 | 1.38 | 96 | 1013.5 |
| 20260904190106 | 82 | 176 | 0.0 | 3.0 | 0.00 | 1.73 | 1.38 | 98 | 1013.8 |
| 20260904184608 | 81 | 142 | 0.0 | 4.0 | 0.00 | 3.30 | 1.38 | 98 | 1014.1 |
| 20260904183108 | 80 | 0 | 1.0 | 4.0 | 0.00 | 3.30 | 1.38 | 98 | 1014.7 |
| 20260904181607 | 80 | 155 | 0.0 | 1.0 | 0.00 | 3.30 | 1.38 | 98 | 1015.1 |
| 20260904180119 | 80 | 94 | 0.0 | 3.0 | 0.00 | 3.30 | 1.38 | 98 | 1014.8 |
| 20260904174611 | 80 | 0 | 0.0 | 1.0 | 0.00 | 3.30 | 1.38 | 99 | 1014.9 |
| 20260904173104 | 80 | 0 | 0.0 | 1.0 | 0.00 | 3.30 | 1.38 | 99 | 1014.7 |
| 20260904171607 | 81 | 0 | 0.0 | 0.0 | 0.00 | 3.30 | 1.38 | 99 | 1015.2 |
| 20260904164615 | 81 | 0 | 0.0 | 3.0 | 0.00 | 3.30 | 1.38 | 98 | 1014.9 |
| 20260904163103 | 83 | 0 | 0.0 | 0.0 | 0.00 | 3.30 | 1.38 | 99 | 1014.9 |
| 20260904161621 | 83 | 0 | 0.0 | 0.0 | 0.13 | 3.30 | 1.38 | 99 | 1015.0 |
| 20260904160107 | 84 | 0 | 0.0 | 0.0 | 0.18 | 3.30 | 1.38 | 99 | 1014.5 |
| 20260904154607 | 84 | 0 | 0.0 | 0.0 | 0.18 | 3.30 | 1.38 | 99 | 1014.4 |
| 20260904153141 | 82 | 0 | 0.0 | 2.0 | 0.27 | 3.30 | 1.38 | 100 | 1014.1 |
| 20260904151604 | 82 | 0 | 0.0 | 0.0 | 1.25 | 3.17 | 1.25 | 100 | 1014.4 |
| 20260904150107 | 82 | 0 | 0.0 | 0.0 | 1.20 | 3.12 | 1.20 | 100 | 1014.2 |
| 20260904144559 | 82 | 0 | 0.0 | 0.0 | 1.20 | 3.12 | 1.20 | 100 | 1014.3 |
| 20260904143105 | 82 | 0 | 0.0 | 0.0 | 0.00 | 1.92 | 0.00 | 100 | 1014.1 |
| 20260904141605 | 82 | 0 | 0.0 | 0.0 | 0.00 | 1.92 | 0.00 | 100 | 1014.0 |
| 20260904140107 | 81 | 0 | 0.0 | 0.0 | 0.00 | 1.92 | 0.00 | 100 | 1013.9 |
| 20260904134607 | 81 | 0 | 0.0 | 0.0 | 0.00 | 1.92 | 0.00 | 100 | 1014.0 |
| 20260904133101 | 81 | 0 | 0.0 | 0.0 | 0.00 | 1.92 | 0.00 | 100 | 1013.8 |
| 20260904131637 | 80 | 0 | 0.0 | 0.0 | 0.00 | 1.92 | 0.00 | 100 | 1013.7 |
| 20260904130108 | 79 | 0 | 0.0 | 0.0 | 0.00 | 1.92 | 0.00 | 100 | 1013.5 |
| 20260904124600 | 78 | 0 | 0.0 | 0.0 | 0.00 | 1.92 | 0.00 | 100 | 1013.4 |
| 20260904123104 | 78 | 0 | 0.0 | 0.0 | 0.00 | 1.92 | 0.00 | 100 | 1013.3 |
| 20260904121600 | 78 | 0 | 0.0 | 0.0 | 0.00 | 1.92 | 0.00 | 100 | 1013.1 |
| 20260904120104 | 78 | 0 | 0.0 | 0.0 | 0.00 | 1.92 | 0.00 | 100 | 1013.0 |
| 20260904114601 | 78 | 0 | 0.0 | 0.0 | 0.00 | 1.92 | 0.00 | 100 | 1012.9 |
| 20260904113101 | 77 | 0 | 0.0 | 0.0 | 0.00 | 1.92 | 0.00 | 100 | 1013.0 |
| 20260904111606 | 78 | 0 | 0.0 | 0.0 | 0.00 | 1.92 | 0.00 | 100 | 1012.8 |
| 20260904110105 | 78 | 0 | 0.0 | 0.0 | 0.00 | 1.92 | 0.00 | 100 | 1012.7 |
| 20260904104607 | 78 | 0 | 0.0 | 0.0 | 0.00 | 1.94 | 0.00 | 100 | 1012.7 |
| 20260904103110 | 78 | 0 | 0.0 | 0.0 | 0.00 | 1.94 | 0.00 | 100 | 1012.6 |
| 20260904101559 | 78 | 0 | 0.0 | 0.0 | 0.00 | 1.94 | 0.00 | 100 | 1012.5 |
| 20260904100103 | 78 | 0 | 0.0 | 0.0 | 0.00 | 1.94 | 0.00 | 100 | 1012.5 |
| 20260904094602 | 78 | 0 | 0.0 | 0.0 | 0.00 | 1.94 | 0.00 | 100 | 1012.3 |
| 20260904093105 | 78 | 0 | 0.0 | 0.0 | 0.00 | 1.94 | 0.00 | 100 | 1012.2 |
| 20260904091611 | 78 | 0 | 0.0 | 0.0 | 0.00 | 1.94 | 0.00 | 100 | 1012.2 |
| 20260904090104 | 78 | 0 | 0.0 | 0.0 | 0.00 | 1.94 | 0.00 | 100 | 1012.3 |
| 20260904084605 | 78 | 0 | 0.0 | 0.0 | 0.00 | 1.94 | 0.00 | 100 | 1012.4 |
| 20260904083109 | 78 | 0 | 0.0 | 0.0 | 0.00 | 1.94 | 0.00 | 100 | 1012.5 |
| 20260904081602 | 78 | 0 | 0.0 | 0.0 | 0.00 | 1.94 | 0.00 | 100 | 1012.5 |
| 20260904080100 | 78 | 0 | 0.0 | 0.0 | 0.00 | 1.94 | 0.00 | 100 | 1012.4 |
| 20260904074607 | 78 | 0 | 0.0 | 0.0 | 0.00 | 1.94 | 0.00 | 100 | 1012.5 |
| 20260904073102 | 78 | 0 | 0.0 | 0.0 | 0.00 | 1.94 | 0.00 | 100 | 1012.6 |
| 20260904071602 | 79 | 0 | 0.0 | 0.0 | 0.00 | 1.94 | 0.00 | 100 | 1012.7 |
| 20260904070130 | 79 | 0 | 0.0 | 0.0 | 0.00 | 1.94 | 0.00 | 100 | 1012.7 |
| 20260904064603 | 79 | 0 | 0.0 | 2.0 | 0.00 | 1.94 | 0.00 | 100 | 1012.8 |
| 20260904063106 | 79 | 0 | 0.0 | 1.0 | 0.00 | 1.94 | 0.00 | 100 | 1013.0 |
| 20260904061609 | 79 | 0 | 0.0 | 1.0 | 0.00 | 1.94 | 0.00 | 100 | 1012.8 |
| 20260904060107 | 78 | 0 | 0.0 | 1.0 | 0.00 | 1.94 | 0.00 | 100 | 1012.9 |
| 20260904054607 | 78 | 109 | 0.0 | 1.0 | 0.00 | 1.94 | 0.00 | 100 | 1012.8 |
| 20260904053107 | 78 | 0 | 0.0 | 0.0 | 0.00 | 1.94 | 0.00 | 100 | 1012.8 |
| 20260904051621 | 78 | 0 | 0.0 | 1.0 | 0.00 | 1.94 | 0.00 | 100 | 1012.7 |
| 20260904050105 | 78 | 0 | 0.0 | 0.0 | 0.00 | 1.94 | 0.00 | 100 | 1012.8 |
| 20260904044612 | 78 | 0 | 0.0 | 0.0 | 0.00 | 1.94 | 1.94 | 100 | 1012.9 |
| 20260904043102 | 79 | 0 | 0.0 | 1.0 | 0.00 | 1.94 | 1.94 | 100 | 1012.8 |
| 20260904041612 | 79 | 207 | 0.0 | 1.0 | 0.00 | 1.94 | 1.94 | 100 | 1012.8 |
| 20260904040112 | 78 | 0 | 0.0 | 1.0 | 0.00 | 1.94 | 1.94 | 100 | 1012.8 |
| 20260904034609 | 78 | 0 | 0.0 | 1.0 | 0.00 | 1.94 | 1.94 | 100 | 1012.9 |
| 20260904033107 | 78 | 0 | 0.0 | 1.0 | 0.00 | 1.94 | 1.94 | 100 | 1012.8 |
| 20260904031603 | 78 | 169 | 0.0 | 2.0 | 0.00 | 1.94 | 1.94 | 100 | 1012.8 |
| 20260904030107 | 78 | 112 | 0.0 | 0.0 | 0.00 | 1.94 | 1.94 | 100 | 1012.7 |
| 20260904024611 | 78 | 0 | 0.0 | 0.0 | 0.00 | 1.94 | 1.94 | 100 | 1012.8 |
| 20260904023110 | 78 | 0 | 0.0 | 1.0 | 0.00 | 1.94 | 1.94 | 100 | 1012.5 |
| 20260904021610 | 78 | 129 | 0.0 | 0.0 | 0.00 | 1.94 | 1.94 | 100 | 1012.4 |
| 20260904020059 | 78 | 0 | 0.0 | 1.0 | 0.00 | 1.94 | 1.94 | 100 | 1012.4 |
| 20260904014640 | 78 | 0 | 0.0 | 1.0 | 0.00 | 1.94 | 1.94 | 100 | 1012.1 |
| 20260904013059 | 78 | 0 | 0.0 | 0.0 | 0.00 | 1.94 | 1.94 | 100 | 1011.9 |
| 20260904011624 | 78 | 180 | 0.0 | 0.0 | 0.00 | 1.94 | 1.94 | 100 | 1011.9 |